ADDS METAR Data INFO
IDs: Format: Raw Decoded Include TAF

Data at: 1951 UTC 14 Aug 2018

KMGC 141935Z AUTO 01003KT 10SM SCT060 28/17 A2999 RMK AO2
KMGC 141915Z AUTO 00000KT 10SM SCT060 28/17 A3000 RMK AO2
KMGC 141855Z AUTO 35004KT 10SM SCT049 SCT060 27/17 A3000 RMK AO2
KMGC 141835Z AUTO 34005KT 10SM SCT049 SCT060 BKN070 27/17 A3001 RMK AO2
KMGC 141815Z AUTO 34004KT 10SM SCT049 SCT060 28/17 A3001 RMK AO2
KMGC 141755Z AUTO 27004KT 10SM CLR 28/17 A3001 RMK AO2
KMGC 141735Z AUTO 00000KT 10SM CLR 28/16 A3002 RMK AO2
KMGC 141715Z AUTO 00000KT 10SM CLR 28/16 A3002 RMK AO2
KMGC 141655Z AUTO 00000KT 10SM CLR 28/16 A3002 RMK AO2
KMGC 141635Z AUTO 29003KT 10SM CLR 28/16 A3002 RMK AO2
KMGC 141615Z AUTO 28004KT 10SM CLR 28/16 A3002 RMK AO2
KMGC 141555Z AUTO 29004KT 10SM CLR 27/16 A3002 RMK AO2
KMGC 141535Z AUTO 31004KT 10SM CLR 27/17 A3002 RMK AO2
KMGC 141515Z AUTO 26004KT 10SM CLR 27/17 A3002 RMK AO2
KMGC 141455Z AUTO 25003KT 10SM CLR 26/18 A3003 RMK AO2
KMGC 141435Z AUTO 23003KT 10SM CLR 25/18 A3002 RMK AO2
KMGC 141415Z AUTO 23003KT 10SM CLR 24/18 A3002 RMK AO2
KMGC 141355Z AUTO 23003KT 10SM CLR 23/18 A3002 RMK AO2
KMGC 141335Z AUTO 22003KT 7SM CLR 22/18 A3002 RMK AO2
KMGC 141315Z AUTO 00000KT 7SM CLR 21/18 A3002 RMK AO2
KMGC 141255Z AUTO 21003KT 10SM SCT050 21/18 A3002 RMK AO2
KMGC 141235Z AUTO 00000KT 10SM SCT050 20/18 A3002 RMK AO2
KMGC 141215Z AUTO 00000KT 10SM SCT048 19/18 A3002 RMK AO2
KMGC 141155Z AUTO 00000KT 10SM CLR 18/18 A3001 RMK AO2
KMGC 141135Z AUTO 00000KT 10SM CLR 17/17 A3002 RMK AO2
KMGC 141115Z AUTO 00000KT 7SM SCT050 SCT065 17/17 A3001 RMK AO2
KMGC 141055Z AUTO 00000KT 7SM BKN050 BKN065 17/17 A3001 RMK AO2
KMGC 141035Z AUTO 00000KT 7SM BKN050 BKN065 17/17 A3001 RMK AO2
KMGC 141015Z AUTO 00000KT 10SM BKN050 BKN065 17/17 A3000 RMK AO2
KMGC 140955Z AUTO 00000KT 7SM BKN048 BKN055 17/17 A3000 RMK AO2
KMGC 140935Z AUTO 00000KT 7SM BKN048 17/17 A3000 RMK AO2
KMGC 140915Z AUTO 00000KT 7SM BKN050 17/17 A3000 RMK AO2
KMGC 140855Z AUTO 00000KT 7SM BKN050 17/17 A3000 RMK AO2
KMGC 140835Z AUTO 00000KT 5SM BR SCT050 17/17 A3001 RMK AO2
KMGC 140815Z AUTO 00000KT 7SM CLR 17/17 A3000 RMK AO2
KMGC 140755Z AUTO 00000KT 7SM CLR 17/17 A3001 RMK AO2
KMGC 140735Z AUTO 00000KT 7SM SCT050 17/17 A3001 RMK AO2
KMGC 140715Z AUTO 00000KT 7SM SCT050 17/17 A3002 RMK AO2
KMGC 140655Z AUTO 00000KT 4SM BR CLR 17/17 A3002 RMK AO2
KMGC 140635Z AUTO 00000KT 7SM CLR 17/17 A3002 RMK AO2
KMGC 140615Z AUTO 00000KT 4SM BR CLR 17/17 A3002 RMK AO2
KMGC 140555Z AUTO 00000KT 7SM CLR 17/17 A3003 RMK AO2
KMGC 140535Z AUTO 00000KT 7SM CLR 17/17 A3004 RMK AO2
KMGC 140515Z AUTO 00000KT 3SM BR SCT070 18/18 A3003 RMK AO2
KMGC 140455Z AUTO 00000KT 10SM SCT070 18/18 A3004 RMK AO2
KMGC 140435Z AUTO 00000KT 7SM SCT070 18/18 A3004 RMK AO2
KMGC 140415Z AUTO 00000KT 7SM SCT070 18/18 A3004 RMK AO2
KMGC 140355Z AUTO 00000KT 7SM SCT060 18/18 A3004 RMK AO2
KMGC 140335Z AUTO 00000KT 2 1/2SM BR BKN060 18/18 A3004 RMK AO2
KMGC 140315Z AUTO 00000KT 7SM BKN060 18/18 A3005 RMK AO2
KMGC 140255Z AUTO 00000KT 7SM SCT060 18/18 A3005 RMK AO2
KMGC 140235Z AUTO 00000KT 7SM CLR 18/18 A3005 RMK AO2
KMGC 140215Z AUTO 00000KT 7SM CLR 18/18 A3004 RMK AO2
KMGC 140155Z AUTO 00000KT 10SM CLR 19/18 A3004 RMK AO2
KMGC 140135Z AUTO 00000KT 10SM CLR 20/18 A3003 RMK AO2
KMGC 140115Z AUTO 00000KT 10SM CLR 20/18 A3003 RMK AO2
KMGC 140055Z AUTO 00000KT 7SM CLR 21/17 A3003 RMK AO2
KMGC 140035Z AUTO 00000KT 7SM CLR 22/17 A3003 RMK AO2
KMGC 140015Z AUTO 00000KT 10SM CLR 23/18 A3003 RMK AO2
KMGC 132355Z AUTO 00000KT 10SM CLR 24/17 A3003 RMK AO2
KMGC 132335Z AUTO 36003KT 10SM CLR 25/17 A3003 RMK AO2
KMGC 132315Z AUTO 01003KT 10SM CLR 25/17 A3003 RMK AO2
KMGC 132255Z AUTO 01004KT 10SM CLR 26/16 A3003 RMK AO2
KMGC 132235Z AUTO 01003KT 10SM CLR 26/16 A3003 RMK AO2
KMGC 132215Z AUTO 01003KT 10SM CLR 26/16 A3004 RMK AO2
KMGC 132155Z AUTO 01004KT 10SM CLR 26/16 A3005 RMK AO2
KMGC 132135Z AUTO 02004KT 10SM CLR 27/16 A3005 RMK AO2
KMGC 132115Z AUTO 01005KT 10SM CLR 27/16 A3005 RMK AO2
KMGC 132055Z AUTO 35004KT 10SM CLR 27/16 A3005 RMK AO2
KMGC 132035Z AUTO 01005KT 10SM CLR 27/15 A3006 RMK AO2
KMGC 132015Z AUTO 00000KT 10SM CLR 27/15 A3007 RMK AO2
KMGC 131955Z AUTO 00000KT 10SM CLR 27/15 A3007 RMK AO2
KMGC 131935Z AUTO 01004KT 10SM CLR 27/15 A3007 RMK AO2 PWINO
KMGC 131915Z AUTO 00000KT 10SM CLR 27/16 A3008 RMK AO2
KMGC 131855Z AUTO 36005KT 10SM CLR 27/15 A3009 RMK AO2
KMGC 131835Z AUTO 35006KT 10SM CLR 27/17 A3009 RMK AO2
KMGC 131815Z AUTO 34005KT 10SM CLR 27/17 A3010 RMK AO2
KMGC 131755Z AUTO 34006KT 10SM CLR 27/17 A3010 RMK AO2
KMGC 131735Z AUTO 34007KT 10SM CLR 27/17 A3011 RMK AO2
KMGC 131715Z AUTO 29003KT 10SM CLR 27/17 A3011 RMK AO2
KMGC 131655Z AUTO 32005KT 10SM CLR 27/17 A3012 RMK AO2
KMGC 131635Z AUTO 29004KT 10SM CLR 27/18 A3012 RMK AO2
KMGC 131615Z AUTO 30004KT 10SM SCT020 26/19 A3012 RMK AO2
KMGC 131555Z AUTO 27005KT 10SM SCT020 26/19 A3013 RMK AO2
KMGC 131535Z AUTO 32003KT 10SM CLR 26/20 A3014 RMK AO2
KMGC 131515Z AUTO 34003KT 10SM CLR 25/19 A3014 RMK AO2
KMGC 131455Z AUTO 00000KT 10SM CLR 25/19 A3014 RMK AO2
KMGC 131435Z AUTO 00000KT 10SM CLR 25/18 A3013 RMK AO2
KMGC 131415Z AUTO 00000KT 10SM CLR 23/20 A3014 RMK AO2
KMGC 131355Z AUTO 00000KT 10SM CLR 21/21 A3013 RMK AO2
KMGC 131335Z AUTO 00000KT 10SM CLR 20/20 A3013 RMK AO2
KMGC 131315Z AUTO 00000KT 10SM CLR 20/20 A3013 RMK AO2
KMGC 131255Z AUTO 00000KT 10SM CLR 18/18 A3012 RMK AO2
KMGC 131235Z AUTO 00000KT 10SM CLR 18/18 A3012 RMK AO2
KMGC 131215Z AUTO 00000KT 7SM CLR 17/17 A3012 RMK AO2
KMGC 131155Z AUTO 00000KT 5SM BR CLR 17/17 A3012 RMK AO2
KMGC 131135Z AUTO 00000KT 1/4SM FG VV002 16/16 A3012 RMK AO2
KMGC 131115Z AUTO 00000KT 1/4SM FG BKN002 16/16 A3011 RMK AO2
KMGC 131055Z AUTO 00000KT 3/4SM BR BKN002 16/16 A3010 RMK AO2
KMGC 131035Z AUTO 00000KT 3/4SM BR BKN002 16/16 A3010 RMK AO2
KMGC 131015Z AUTO 00000KT 2 1/2SM BR SCT002 16/16 A3011 RMK AO2
KMGC 130955Z AUTO 00000KT 3/4SM BR OVC002 17/17 A3011 RMK AO2
KMGC 130935Z AUTO 00000KT 1/2SM FG OVC002 17/17 A3011 RMK AO2
KMGC 130915Z AUTO 00000KT 1/2SM FG OVC002 16/16 A3011 RMK AO2
KMGC 130855Z AUTO 00000KT 1/4SM FG OVC002 16/16 A3011 RMK AO2
KMGC 130835Z AUTO 00000KT 1/2SM FG OVC002 17/17 A3011 RMK AO2
KMGC 130815Z AUTO 00000KT 1/4SM FG OVC002 17/17 A3011 RMK AO2
KMGC 130755Z AUTO 00000KT 1/4SM FG OVC002 17/17 A3012 RMK AO2